createdAt,value
2023-04-05T00:00:04.889Z,80.71
2023-04-05T00:01:04.933Z,80.61
2023-04-05T00:02:04.881Z,80.30
2023-04-05T00:03:04.933Z,80.30
2023-04-05T00:04:05.020Z,80.02
2023-04-05T00:05:04.835Z,80.44
2023-04-05T00:06:04.874Z,80.33
2023-04-05T00:07:04.812Z,80.65
2023-04-05T00:08:04.899Z,80.68
2023-04-05T00:09:04.850Z,81.38
2023-04-05T00:10:04.791Z,81.41
2023-04-05T00:11:04.782Z,81.93
2023-04-05T00:12:04.751Z,81.62
2023-04-05T00:13:04.756Z,81.52
2023-04-05T00:14:04.806Z,81.62
2023-04-05T00:15:04.737Z,81.41
2023-04-05T00:16:04.766Z,81.52
2023-04-05T00:17:04.713Z,81.62
2023-04-05T00:18:04.757Z,81.41
2023-04-05T00:19:04.695Z,81.45
2023-04-05T00:20:04.674Z,81.76
2023-04-05T00:21:04.682Z,81.62
2023-04-05T00:22:04.688Z,81.31
2023-04-05T00:23:04.956Z,81.52
2023-04-05T00:24:04.681Z,81.62
2023-04-05T00:25:04.628Z,81.41
2023-04-05T00:26:04.610Z,81.52
2023-04-05T00:27:04.603Z,81.66
2023-04-05T00:28:04.617Z,81.56
2023-04-05T00:29:04.707Z,81.97
2023-04-05T00:30:04.600Z,81.87
2023-04-05T00:31:04.613Z,81.97
2023-04-05T00:32:04.578Z,82.04
2023-04-05T00:33:04.597Z,81.93
2023-04-05T00:34:04.586Z,81.93
2023-04-05T00:35:04.541Z,81.93
2023-04-05T00:36:04.564Z,81.73
2023-04-05T00:37:04.507Z,82.14
2023-04-05T00:38:04.479Z,82.14
2023-04-05T00:39:04.523Z,81.90
2023-04-05T00:40:04.508Z,82.00
2023-04-05T00:41:04.457Z,81.79
2023-04-05T00:42:04.483Z,82.00
2023-04-05T00:43:04.445Z,81.79
2023-04-05T00:44:04.512Z,81.90
2023-04-05T00:45:04.431Z,81.79
2023-04-05T00:46:04.421Z,81.90
2023-04-05T00:47:04.412Z,82.21
2023-04-05T00:48:04.503Z,81.90
2023-04-05T00:49:04.490Z,82.00
2023-04-05T00:50:04.370Z,81.79
2023-04-05T00:51:04.383Z,81.79
2023-04-05T00:52:04.365Z,82.00
2023-04-05T00:53:04.346Z,81.79
2023-04-05T00:54:04.400Z,81.79
2023-04-05T00:55:04.424Z,81.62
2023-04-05T00:56:04.431Z,81.83
2023-04-05T00:57:04.315Z,81.73
2023-04-05T00:58:04.292Z,81.35
2023-04-05T00:59:04.410Z,81.93
2023-04-05T01:00:04.286Z,81.73
2023-04-05T01:01:04.327Z,81.73
2023-04-05T01:02:04.252Z,82.07
2023-04-05T01:03:04.262Z,81.87
2023-04-05T01:04:04.342Z,81.76
2023-04-05T01:05:04.225Z,82.07
2023-04-05T01:06:04.224Z,82.07
2023-04-05T01:07:04.205Z,82.18
2023-04-05T01:08:04.269Z,82.39
2023-04-05T01:09:04.185Z,82.39
2023-04-05T01:10:04.183Z,82.18
2023-04-05T01:11:04.171Z,82.18
2023-04-05T01:12:04.166Z,82.46
2023-04-05T01:13:04.135Z,82.35
2023-04-05T01:14:04.455Z,82.29
2023-04-05T01:15:04.116Z,82.29
2023-04-05T01:16:04.184Z,82.29
2023-04-05T01:17:04.100Z,82.39
2023-04-05T01:18:04.120Z,82.39
2023-04-05T01:19:04.136Z,82.64
2023-04-05T01:20:04.136Z,82.53
2023-04-05T01:21:04.069Z,82.95
2023-04-05T01:22:04.034Z,82.74
2023-04-05T01:23:04.058Z,82.70
2023-04-05T01:24:04.082Z,82.95
2023-04-05T01:25:04.090Z,83.06
2023-04-05T01:26:03.999Z,82.70
2023-04-05T01:27:03.989Z,82.81
2023-04-05T01:28:03.978Z,82.95
2023-04-05T01:29:04.000Z,82.81
2023-04-05T01:30:03.980Z,82.81
2023-04-05T01:31:04.013Z,82.70
2023-04-05T01:32:03.954Z,82.81
2023-04-05T01:33:03.977Z,83.64
2023-04-05T01:34:04.026Z,83.64
2023-04-05T01:35:03.935Z,84.17
2023-04-05T01:36:03.973Z,84.06
2023-04-05T01:37:03.883Z,84.27
2023-04-05T01:38:03.876Z,84.27
2023-04-05T01:39:03.862Z,84.38
2023-04-05T01:40:03.861Z,84.06
2023-04-05T01:41:03.931Z,83.85
2023-04-05T01:42:03.841Z,83.64
2023-04-05T01:43:03.839Z,83.75
2023-04-05T01:44:03.897Z,83.47
2023-04-05T01:45:03.814Z,83.68
2023-04-05T01:46:03.826Z,83.47
2023-04-05T01:47:03.818Z,84.10
2023-04-05T01:48:03.850Z,84.41
2023-04-05T01:49:03.838Z,83.89
2023-04-05T01:50:03.780Z,84.31
2023-04-05T01:51:03.766Z,84.20
2023-04-05T01:52:03.732Z,84.06
2023-04-05T01:53:03.758Z,84.20
2023-04-05T01:54:03.731Z,84.27
2023-04-05T01:55:03.767Z,84.27
2023-04-05T01:56:03.741Z,84.41
2023-04-05T01:57:03.702Z,84.10
2023-04-05T01:58:03.679Z,84.41
2023-04-05T01:59:03.753Z,84.62
2023-04-05T02:00:03.667Z,84.20
2023-04-05T02:01:03.747Z,84.52
2023-04-05T02:02:03.642Z,84.41
2023-04-05T02:03:03.724Z,84.31
2023-04-05T02:04:03.638Z,84.20
2023-04-05T02:05:03.630Z,84.31
2023-04-05T02:06:03.651Z,84.14
2023-04-05T02:07:03.697Z,84.10
2023-04-05T02:08:03.568Z,84.24
2023-04-05T02:09:03.563Z,84.14
2023-04-05T02:10:03.561Z,84.34
2023-04-05T02:11:03.584Z,84.17
2023-04-05T02:12:03.602Z,84.39
2023-04-05T02:13:03.538Z,84.59
2023-04-05T02:14:03.521Z,84.17
2023-04-05T02:15:03.508Z,84.49
2023-04-05T02:16:03.548Z,84.39
2023-04-05T02:17:03.576Z,84.49
2023-04-05T02:18:03.485Z,84.39
2023-04-05T02:19:03.489Z,84.70
2023-04-05T02:20:03.454Z,84.59
2023-04-05T02:21:03.460Z,84.49
2023-04-05T02:22:03.484Z,84.39
2023-04-05T02:23:03.472Z,84.59
2023-04-05T02:24:03.478Z,83.97
2023-04-05T02:25:03.419Z,84.17
2023-04-05T02:26:03.441Z,84.14
2023-04-05T02:27:03.426Z,84.28
2023-04-05T02:28:03.410Z,83.76
2023-04-05T02:29:03.388Z,84.59
2023-04-05T02:30:03.350Z,84.80
2023-04-05T02:31:03.393Z,84.49
2023-04-05T02:32:03.448Z,83.86
2023-04-05T02:33:03.342Z,84.49
2023-04-05T02:34:03.325Z,83.97
2023-04-05T02:35:03.308Z,84.59
2023-04-05T02:36:03.521Z,84.59
2023-04-05T02:37:03.282Z,84.70
2023-04-05T02:38:03.382Z,84.49
2023-04-05T02:39:03.352Z,84.74
2023-04-05T02:40:03.715Z,84.28
2023-04-05T02:41:03.241Z,84.70
2023-04-05T02:42:03.239Z,84.07
2023-04-05T02:43:03.217Z,84.49
2023-04-05T02:44:03.199Z,84.53
2023-04-05T02:45:03.268Z,84.49
2023-04-05T02:46:03.268Z,84.49
2023-04-05T02:47:03.189Z,84.59
2023-04-05T02:48:03.206Z,84.39
2023-04-05T02:49:03.179Z,84.63
2023-04-05T02:50:03.206Z,84.42
2023-04-05T02:51:03.127Z,84.32
2023-04-05T02:52:03.152Z,84.32
2023-04-05T02:53:03.124Z,84.59
2023-04-05T02:54:03.200Z,84.42
2023-04-05T02:55:03.114Z,84.74
2023-04-05T02:56:03.108Z,84.00
2023-04-05T02:57:03.066Z,84.63
2023-04-05T02:58:03.077Z,84.84
2023-04-05T02:59:03.084Z,84.84
2023-04-05T03:00:03.106Z,85.33
2023-04-05T03:01:03.053Z,85.33
2023-04-05T03:02:03.013Z,85.68
2023-04-05T03:03:03.099Z,85.47
2023-04-05T03:04:03.101Z,85.53
2023-04-05T03:05:03.060Z,85.68
2023-04-05T03:06:02.991Z,85.47
2023-04-05T03:07:02.956Z,85.68
2023-04-05T03:08:02.965Z,86.52
2023-04-05T03:09:02.952Z,86.10
2023-04-05T03:10:03.078Z,85.68
2023-04-05T03:11:02.950Z,86.52
2023-04-05T03:12:02.915Z,86.62
2023-04-05T03:13:02.918Z,87.04
2023-04-05T03:14:02.913Z,87.04
2023-04-05T03:15:02.940Z,87.35
2023-04-05T03:16:02.880Z,87.04
2023-04-05T03:17:02.961Z,87.15
2023-04-05T03:18:02.871Z,87.15
2023-04-05T03:19:02.851Z,87.25
2023-04-05T03:20:02.897Z,87.35
2023-04-05T03:21:02.911Z,87.46
2023-04-05T03:22:02.811Z,87.25
2023-04-05T03:23:02.824Z,87.04
2023-04-05T03:24:02.810Z,87.15
2023-04-05T03:25:02.836Z,86.62
2023-04-05T03:26:02.783Z,86.41
2023-04-05T03:27:02.780Z,86.52
2023-04-05T03:28:02.837Z,85.89
2023-04-05T03:29:02.767Z,85.89
2023-04-05T03:30:02.741Z,85.99
2023-04-05T03:31:02.728Z,85.89
2023-04-05T03:32:02.728Z,86.20
2023-04-05T03:33:02.759Z,86.31
2023-04-05T03:34:02.889Z,86.31
2023-04-05T03:35:02.699Z,86.20
2023-04-05T03:36:02.745Z,86.41
2023-04-05T03:37:02.659Z,85.78
2023-04-05T03:38:02.636Z,85.68
2023-04-05T03:39:02.713Z,85.47
2023-04-05T03:40:02.626Z,85.47
2023-04-05T03:41:02.641Z,85.58
2023-04-05T03:42:02.628Z,85.47
2023-04-05T03:43:02.610Z,85.58
2023-04-05T03:44:02.662Z,85.51
2023-04-05T03:45:02.579Z,85.51
2023-04-05T03:46:02.600Z,85.72
2023-04-05T03:47:02.575Z,85.82
2023-04-05T03:48:02.567Z,85.61
2023-04-05T03:49:02.606Z,85.51
2023-04-05T03:50:02.558Z,85.72
2023-04-05T03:51:02.566Z,85.58
2023-04-05T03:52:02.502Z,85.68
2023-04-05T03:53:02.510Z,85.41
2023-04-05T03:54:02.555Z,85.51
2023-04-05T03:55:02.488Z,85.51
2023-04-05T03:56:02.513Z,85.51
2023-04-05T03:57:02.481Z,85.47
2023-04-05T03:58:02.493Z,85.36
2023-04-05T03:59:02.497Z,85.61
2023-04-05T04:00:02.435Z,85.51
2023-04-05T04:01:02.471Z,85.72
2023-04-05T04:02:02.427Z,85.72
2023-04-05T04:03:02.426Z,85.30
2023-04-05T04:04:02.389Z,85.16
2023-04-05T04:05:02.412Z,85.41
2023-04-05T04:06:02.502Z,85.19
2023-04-05T04:07:02.360Z,85.30
2023-04-05T04:08:02.354Z,85.09
2023-04-05T04:09:02.397Z,85.19
2023-04-05T04:10:02.345Z,85.41
2023-04-05T04:11:02.345Z,85.41
2023-04-05T04:12:02.300Z,85.41
2023-04-05T04:13:02.295Z,85.30
2023-04-05T04:14:02.357Z,85.41
2023-04-05T04:15:02.303Z,85.41
2023-04-05T04:16:02.301Z,85.30
2023-04-05T04:17:02.263Z,85.09
2023-04-05T04:18:02.273Z,85.30
2023-04-05T04:19:02.258Z,85.09
2023-04-05T04:20:02.287Z,85.19
2023-04-05T04:21:02.291Z,84.99
2023-04-05T04:22:02.238Z,84.99
2023-04-05T04:23:02.259Z,84.78
2023-04-05T04:24:02.179Z,84.67
2023-04-05T04:25:02.174Z,84.99
2023-04-05T04:26:02.155Z,84.99
2023-04-05T04:27:02.175Z,84.99
2023-04-05T04:28:02.183Z,85.09
2023-04-05T04:29:02.122Z,85.13
2023-04-05T04:30:02.115Z,84.99
2023-04-05T04:31:02.188Z,84.99
2023-04-05T04:32:02.114Z,85.30
2023-04-05T04:33:02.117Z,85.13
2023-04-05T04:34:02.082Z,85.13
2023-04-05T04:35:02.073Z,85.09
2023-04-05T04:36:02.135Z,84.92
2023-04-05T04:37:02.072Z,85.13
2023-04-05T04:38:02.096Z,85.02
2023-04-05T04:39:02.036Z,85.02
2023-04-05T04:40:02.011Z,84.92
2023-04-05T04:41:02.053Z,85.09
2023-04-05T04:42:01.997Z,84.81
2023-04-05T04:43:01.988Z,85.02
2023-04-05T04:44:01.971Z,85.44
2023-04-05T04:45:02.011Z,85.86
2023-04-05T04:46:02.058Z,85.97
2023-04-05T04:47:01.945Z,86.49
2023-04-05T04:48:01.971Z,86.60
2023-04-05T04:49:01.929Z,87.16
2023-04-05T04:50:01.940Z,87.37
2023-04-05T04:51:01.972Z,87.33
2023-04-05T04:52:01.892Z,87.01
2023-04-05T04:53:01.973Z,87.33
2023-04-05T04:54:01.881Z,87.33
2023-04-05T04:55:01.863Z,87.05
2023-04-05T04:56:01.909Z,86.85
2023-04-05T04:57:01.842Z,86.38
2023-04-05T04:58:01.832Z,86.49
2023-04-05T04:59:01.918Z,86.63
2023-04-05T05:00:01.810Z,86.43
2023-04-05T05:01:01.822Z,85.90
2023-04-05T05:02:01.796Z,86.00
2023-04-05T05:03:01.833Z,86.07
2023-04-05T05:04:01.904Z,86.43
2023-04-05T05:05:01.761Z,86.18
2023-04-05T05:06:01.747Z,86.07
2023-04-05T05:07:01.747Z,85.65
2023-04-05T05:08:01.790Z,85.55
2023-04-05T05:09:01.774Z,85.55
2023-04-05T05:10:01.731Z,85.44
2023-04-05T05:11:01.775Z,85.55
2023-04-05T05:12:01.703Z,85.86
2023-04-05T05:13:01.681Z,85.34
2023-04-05T05:14:01.725Z,85.65
2023-04-05T05:15:01.664Z,85.41
2023-04-05T05:16:01.647Z,85.41
2023-04-05T05:17:01.676Z,85.51
2023-04-05T05:18:01.667Z,85.41
2023-04-05T05:19:01.813Z,85.19
2023-04-05T05:20:01.632Z,85.51
2023-04-05T05:21:01.591Z,85.58
2023-04-05T05:22:01.607Z,85.41
2023-04-05T05:23:01.584Z,84.84
2023-04-05T05:24:01.618Z,85.05
2023-04-05T05:25:01.625Z,85.05
2023-04-05T05:26:01.558Z,85.05
2023-04-05T05:27:01.548Z,85.05
2023-04-05T05:28:01.533Z,85.22
2023-04-05T05:29:01.526Z,85.05
2023-04-05T05:30:01.572Z,85.01
2023-04-05T05:31:01.531Z,84.95
2023-04-05T05:32:01.493Z,85.12
2023-04-05T05:33:01.863Z,84.91
2023-04-05T05:34:01.500Z,84.80
2023-04-05T05:35:01.474Z,84.49
2023-04-05T05:36:01.521Z,85.29
2023-04-05T05:37:01.459Z,85.33
2023-04-05T05:38:01.530Z,85.08
2023-04-05T05:39:01.430Z,84.97
2023-04-05T05:40:01.421Z,84.97
2023-04-05T05:41:01.392Z,84.97
2023-04-05T05:42:01.395Z,85.39
2023-04-05T05:43:01.438Z,85.46
2023-04-05T05:44:01.349Z,85.39
2023-04-05T05:45:01.336Z,85.25
2023-04-05T05:46:01.411Z,85.25
2023-04-05T05:47:01.341Z,85.46
2023-04-05T05:48:01.431Z,85.46
2023-04-05T05:49:01.312Z,85.25
2023-04-05T05:50:01.292Z,86.19
2023-04-05T05:51:01.297Z,86.51
2023-04-05T05:52:01.396Z,85.31
2023-04-05T05:53:01.782Z,85.31
2023-04-05T05:54:01.295Z,85.14
2023-04-05T05:55:01.302Z,85.21
2023-04-05T05:56:01.244Z,85.42
2023-04-05T05:57:01.527Z,85.21
2023-04-05T05:58:04.175Z,84.69
2023-04-05T05:59:01.241Z,85.11
2023-04-05T06:00:01.291Z,84.58
2023-04-05T06:01:01.220Z,84.79
2023-04-05T06:02:01.193Z,84.89
2023-04-05T06:03:01.504Z,84.89
2023-04-05T06:04:01.240Z,84.89
2023-04-05T06:05:01.183Z,84.79
2023-04-05T06:06:01.127Z,84.58
2023-04-05T06:07:01.156Z,84.58
2023-04-05T06:08:01.113Z,84.65
2023-04-05T06:09:01.200Z,84.69
2023-04-05T06:10:01.113Z,85.21
2023-04-05T06:11:01.072Z,85.21
2023-04-05T06:12:01.113Z,85.21
2023-04-05T06:13:01.083Z,85.42
2023-04-05T06:14:01.143Z,85.31
2023-04-05T06:15:01.143Z,85.42
2023-04-05T06:16:01.070Z,85.46
2023-04-05T06:17:01.084Z,85.73
2023-04-05T06:18:01.102Z,85.80
2023-04-05T06:19:01.010Z,85.38
2023-04-05T06:20:01.020Z,85.11
2023-04-05T06:21:00.983Z,84.86
2023-04-05T06:22:01.056Z,84.65
2023-04-05T06:23:00.978Z,84.65
2023-04-05T06:24:00.963Z,84.75
2023-04-05T06:25:00.947Z,84.86
2023-04-05T06:26:00.924Z,84.69
2023-04-05T06:27:00.968Z,84.65
2023-04-05T06:28:00.911Z,84.44
2023-04-05T06:29:00.904Z,84.65
2023-04-05T06:30:00.900Z,84.44
2023-04-05T06:31:00.868Z,84.55
2023-04-05T06:32:00.969Z,85.38
2023-04-05T06:33:00.955Z,85.27
2023-04-05T06:34:00.901Z,85.27
2023-04-05T06:35:00.839Z,85.38
2023-04-05T06:36:00.915Z,85.27
2023-04-05T06:37:00.917Z,85.13
2023-04-05T06:38:00.803Z,84.40
2023-04-05T06:39:01.058Z,84.50
2023-04-05T06:40:01.008Z,84.40
2023-04-05T06:41:00.775Z,84.09
2023-04-05T06:42:01.695Z,83.11
2023-04-05T06:43:00.772Z,82.28
2023-04-05T06:44:00.774Z,82.21
2023-04-05T06:45:00.793Z,81.86
2023-04-05T06:46:00.773Z,81.72
2023-04-05T06:47:00.773Z,82.17
2023-04-05T06:48:00.801Z,82.07
2023-04-05T06:49:03.147Z,81.62
2023-04-05T06:50:00.724Z,81.51
2023-04-05T06:51:00.658Z,81.51
2023-04-05T06:52:00.939Z,80.68
2023-04-05T06:53:00.708Z,80.68
2023-04-05T06:54:00.642Z,80.99
2023-04-05T06:55:00.659Z,81.47
2023-04-05T06:56:00.629Z,81.30
2023-04-05T06:57:01.967Z,81.37
2023-04-05T06:58:00.687Z,81.05
2023-04-05T06:59:00.659Z,80.64
2023-04-05T07:00:00.585Z,80.02
2023-04-05T07:01:00.617Z,79.49
2023-04-05T07:02:00.560Z,79.39
2023-04-05T07:03:00.740Z,78.97
2023-04-05T07:04:00.799Z,78.42
2023-04-05T07:05:00.582Z,78.94
2023-04-05T07:06:00.518Z,79.42
2023-04-05T07:07:00.500Z,79.32
2023-04-05T07:08:00.655Z,79.52
2023-04-05T07:09:00.522Z,78.38
2023-04-05T07:10:00.550Z,77.51
2023-04-05T07:11:00.477Z,77.40
2023-04-05T07:12:00.460Z,77.83
2023-04-05T07:13:00.547Z,77.09
2023-04-05T07:14:00.536Z,76.99
2023-04-05T07:15:00.547Z,77.83
2023-04-05T07:16:00.460Z,78.10
2023-04-05T07:17:00.417Z,78.10
2023-04-05T07:18:00.614Z,77.27
2023-04-05T07:19:00.450Z,76.85
2023-04-05T07:20:00.372Z,77.58
2023-04-05T07:21:00.427Z,77.48
2023-04-05T07:22:00.345Z,76.43
2023-04-05T07:23:00.338Z,76.64
2023-04-05T07:24:00.427Z,75.60
2023-04-05T07:25:00.375Z,75.71
2023-04-05T07:26:00.347Z,75.92
2023-04-05T07:27:00.434Z,74.88
2023-04-05T07:28:00.310Z,74.98
2023-04-05T07:29:00.338Z,75.19
2023-04-05T07:30:00.345Z,74.74
2023-04-05T07:31:00.259Z,75.36
2023-04-05T07:32:00.274Z,74.39
2023-04-05T07:33:00.258Z,73.66
2023-04-05T07:34:00.232Z,73.04
2023-04-05T07:35:00.290Z,73.46
2023-04-05T07:36:00.285Z,72.52
2023-04-05T07:37:00.218Z,73.35
2023-04-05T07:38:00.194Z,73.63
2023-04-05T07:39:00.360Z,72.90
2023-04-05T07:40:00.214Z,72.80
2023-04-05T07:41:00.183Z,73.22
2023-04-05T07:42:00.142Z,73.11
2023-04-05T07:43:00.142Z,72.69
2023-04-05T07:44:00.174Z,72.17
2023-04-05T07:45:00.168Z,72.17
2023-04-05T07:46:00.210Z,72.97
2023-04-05T07:47:00.120Z,72.66
2023-04-05T07:48:00.107Z,73.18
2023-04-05T07:49:00.088Z,73.80
2023-04-05T07:50:00.103Z,72.63
2023-04-05T07:51:00.132Z,71.49
2023-04-05T07:52:00.055Z,72.22
2023-04-05T07:53:00.118Z,72.08
2023-04-05T07:54:01.878Z,72.18
2023-04-05T07:55:00.010Z,71.97
2023-04-05T07:56:00.126Z,71.25
2023-04-05T07:56:59.989Z,70.07
2023-04-05T07:57:59.976Z,69.66
2023-04-05T07:59:00.032Z,68.41
2023-04-05T07:59:59.963Z,68.10
2023-04-05T08:01:00.026Z,67.76
2023-04-05T08:02:04.909Z,67.14
2023-04-05T08:03:02.410Z,68.38
2023-04-05T08:04:00.049Z,68.80
2023-04-05T08:04:59.996Z,67.97
2023-04-05T08:06:00.012Z,67.35
2023-04-05T08:06:59.959Z,67.97
2023-04-05T08:07:59.916Z,68.80
2023-04-05T08:08:59.858Z,68.46
2023-04-05T08:09:59.870Z,68.12
2023-04-05T08:10:59.859Z,67.80
2023-04-05T08:11:59.893Z,66.77
2023-04-05T08:12:59.892Z,67.91
2023-04-05T08:13:59.808Z,66.46
2023-04-05T08:14:59.872Z,66.46
2023-04-05T08:15:59.836Z,65.60
2023-04-05T08:16:59.876Z,66.32
2023-04-05T08:17:59.832Z,65.39
2023-04-05T08:18:59.781Z,65.39
2023-04-05T08:19:59.756Z,65.39
2023-04-05T08:20:59.732Z,63.74
2023-04-05T08:21:59.793Z,65.16
2023-04-05T08:22:59.705Z,64.56
2023-04-05T08:23:59.699Z,65.39
2023-04-05T08:24:59.755Z,64.84
2023-04-05T08:25:59.687Z,64.02
2023-04-05T08:26:59.780Z,64.23
2023-04-05T08:27:59.656Z,64.23
2023-04-05T08:28:59.788Z,64.30
2023-04-05T08:29:59.656Z,64.23
2023-04-05T08:30:59.665Z,64.84
2023-04-05T08:31:59.727Z,63.81
2023-04-05T08:32:59.666Z,63.60
2023-04-05T08:33:59.620Z,64.09
2023-04-05T08:34:59.618Z,64.30
2023-04-05T08:35:59.589Z,62.54
2023-04-05T08:36:59.663Z,64.09
2023-04-05T08:37:59.553Z,63.89
2023-04-05T08:38:59.544Z,63.75
2023-04-05T08:39:59.552Z,64.40
2023-04-05T08:40:59.536Z,61.89
2023-04-05T08:41:59.618Z,61.27
2023-04-05T08:42:59.511Z,62.62
2023-04-05T08:43:59.497Z,61.99
2023-04-05T08:44:59.478Z,62.82
2023-04-05T08:45:59.477Z,63.85
2023-04-05T08:46:59.556Z,62.59
2023-04-05T08:47:59.535Z,61.66
2023-04-05T08:48:59.478Z,61.55
2023-04-05T08:49:59.437Z,61.97
2023-04-05T08:50:59.417Z,60.73
2023-04-05T08:51:59.431Z,60.00
2023-04-05T08:52:59.466Z,60.73
2023-04-05T08:53:59.410Z,60.52
2023-04-05T08:54:59.432Z,62.46
2023-04-05T08:55:59.386Z,61.52
2023-04-05T08:56:59.404Z,61.63
2023-04-05T08:57:59.449Z,59.67
2023-04-05T08:58:59.402Z,60.49
2023-04-05T08:59:59.339Z,59.56
2023-04-05T09:00:59.385Z,58.33
2023-04-05T09:02:01.019Z,58.66
2023-04-05T09:02:59.448Z,59.69
2023-04-05T09:03:59.313Z,60.00
2023-04-05T09:04:59.286Z,59.80
2023-04-05T09:05:59.278Z,60.83
2023-04-05T09:06:59.328Z,61.14
2023-04-05T09:07:59.313Z,60.11
2023-04-05T09:08:59.244Z,59.15
2023-04-05T09:09:59.226Z,59.59
2023-04-05T09:10:59.244Z,59.18
2023-04-05T09:11:59.218Z,59.90
2023-04-05T09:12:59.251Z,60.11
2023-04-05T09:13:59.267Z,59.90
2023-04-05T09:14:59.194Z,60.93
2023-04-05T09:15:59.177Z,59.88
2023-04-05T09:16:59.213Z,61.32
2023-04-05T09:17:59.250Z,59.88
2023-04-05T09:18:59.224Z,60.60
2023-04-05T09:19:59.110Z,60.26
2023-04-05T09:20:59.123Z,59.74
2023-04-05T09:21:59.094Z,59.44
2023-04-05T09:22:59.131Z,60.36
2023-04-05T09:23:59.136Z,60.05
2023-04-05T09:24:59.109Z,59.64
2023-04-05T09:25:59.072Z,58.40
2023-04-05T09:26:59.053Z,57.89
2023-04-05T09:27:59.047Z,57.68
2023-04-05T09:28:59.090Z,57.89
2023-04-05T09:29:59.104Z,59.84
2023-04-05T09:30:59.039Z,59.53
2023-04-05T09:31:59.009Z,57.99
2023-04-05T09:32:59.012Z,59.20
2023-04-05T09:33:59.031Z,57.68
2023-04-05T09:34:59.068Z,57.65
2023-04-05T09:35:59.002Z,56.00
2023-04-05T09:36:58.955Z,57.37
2023-04-05T09:37:59.022Z,57.86
2023-04-05T09:38:59.011Z,57.34
2023-04-05T09:39:59.012Z,56.10
2023-04-05T09:40:59.025Z,56.41
2023-04-05T09:41:58.905Z,57.96
2023-04-05T09:42:58.893Z,57.21
2023-04-05T09:43:59.872Z,57.83
2023-04-05T09:44:58.926Z,59.17
2023-04-05T09:45:58.981Z,57.93
2023-04-05T09:46:58.867Z,55.46
2023-04-05T09:47:58.906Z,56.90
2023-04-05T09:49:01.621Z,57.50
2023-04-05T09:49:58.883Z,58.14
2023-04-05T09:51:03.726Z,57.70
2023-04-05T09:51:59.802Z,57.81
2023-04-05T09:52:58.796Z,58.01
2023-04-05T09:53:58.791Z,57.18
2023-04-05T09:54:58.826Z,56.05
2023-04-05T09:55:58.749Z,57.39
2023-04-05T09:56:58.889Z,55.62
2023-04-05T09:57:58.722Z,54.48
2023-04-05T09:58:58.760Z,56.23
2023-04-05T09:59:58.712Z,55.82
2023-04-05T10:01:13.466Z,55.51
2023-04-05T10:01:59.793Z,54.79
2023-04-05T10:02:58.755Z,54.28
2023-04-05T10:03:58.788Z,54.79
2023-04-05T10:04:58.656Z,54.90
2023-04-05T10:05:58.666Z,55.49
2023-04-05T10:06:58.759Z,54.58
2023-04-05T10:07:58.629Z,53.45
2023-04-05T10:08:58.652Z,56.03
2023-04-05T10:09:58.619Z,55.49
2023-04-05T10:10:58.672Z,55.49
2023-04-05T10:11:58.581Z,56.00
2023-04-05T10:12:58.583Z,53.92
2023-04-05T10:13:58.563Z,51.65
2023-04-05T10:14:58.547Z,52.78
2023-04-05T10:15:58.646Z,53.81
2023-04-05T10:16:58.560Z,53.50
2023-04-05T10:17:58.592Z,53.81
2023-04-05T10:18:58.514Z,53.79
2023-04-05T10:19:58.496Z,51.63
2023-04-05T10:20:58.565Z,51.22
2023-04-05T10:21:58.487Z,51.94
2023-04-05T10:22:58.484Z,52.56
2023-04-05T10:23:58.477Z,52.56
2023-04-05T10:24:58.493Z,52.66
2023-04-05T10:25:58.474Z,53.48
2023-04-05T10:26:58.416Z,52.73
2023-04-05T10:27:58.405Z,52.43
2023-04-05T10:28:58.553Z,50.37
2023-04-05T10:29:58.827Z,50.78
2023-04-05T10:30:58.532Z,52.25
2023-04-05T10:31:58.409Z,53.38
2023-04-05T10:32:58.671Z,50.32
2023-04-05T10:33:58.342Z,52.56
2023-04-05T10:34:58.326Z,52.35
2023-04-05T10:35:58.417Z,53.28
2023-04-05T10:36:58.325Z,53.28
2023-04-05T10:37:58.352Z,52.97
2023-04-05T10:39:00.124Z,53.17
2023-04-05T10:39:58.273Z,54.49
2023-04-05T10:40:58.303Z,53.87
2023-04-05T10:41:58.271Z,50.16
2023-04-05T10:42:58.323Z,50.58
2023-04-05T10:43:58.242Z,51.71
2023-04-05T10:44:58.232Z,52.09
2023-04-05T10:45:58.305Z,51.07
2023-04-05T10:46:58.266Z,50.96
2023-04-05T10:47:58.305Z,52.20
2023-04-05T10:48:58.188Z,51.68
2023-04-05T10:49:58.166Z,49.96
2023-04-05T10:50:58.218Z,50.27
2023-04-05T10:51:58.220Z,50.78
2023-04-05T10:52:58.169Z,50.78
2023-04-05T10:53:58.146Z,48.21
2023-04-05T10:54:58.231Z,47.80
2023-04-05T10:55:58.161Z,49.35
2023-04-05T10:56:58.152Z,49.96
2023-04-05T10:57:58.185Z,53.05
2023-04-05T10:58:58.219Z,50.78
2023-04-05T10:59:58.076Z,52.53
2023-04-05T11:00:58.162Z,52.12
2023-04-05T11:01:58.133Z,51.81
2023-04-05T11:02:58.050Z,52.71
2023-04-05T11:03:58.095Z,52.30
2023-04-05T11:04:58.134Z,51.07
2023-04-05T11:05:58.103Z,50.04
2023-04-05T11:06:57.984Z,50.56
2023-04-05T11:07:58.011Z,50.76
2023-04-05T11:08:58.057Z,48.99
2023-04-05T11:09:57.981Z,49.40
2023-04-05T11:10:58.032Z,48.58
2023-04-05T11:11:57.941Z,48.68
2023-04-05T11:12:57.963Z,48.81
2023-04-05T11:13:57.971Z,48.27
2023-04-05T11:14:57.917Z,47.66
2023-04-05T11:15:57.949Z,48.17
2023-04-05T11:16:57.929Z,47.96
2023-04-05T11:17:58.006Z,47.78
2023-04-05T11:18:57.870Z,47.88
2023-04-05T11:19:57.898Z,47.47
2023-04-05T11:20:57.845Z,47.99
2023-04-05T11:21:57.865Z,48.39
2023-04-05T11:22:57.854Z,48.71
2023-04-05T11:23:57.884Z,47.88
2023-04-05T11:24:58.018Z,47.27
2023-04-05T11:25:57.808Z,48.17
2023-04-05T11:26:57.803Z,47.86
2023-04-05T11:27:57.775Z,48.09
2023-04-05T11:28:57.978Z,50.45
2023-04-05T11:29:57.761Z,49.32
2023-04-05T11:30:57.870Z,47.86
2023-04-05T11:31:57.776Z,46.42
2023-04-05T11:32:57.764Z,47.76
2023-04-05T11:33:58.505Z,48.07
2023-04-05T11:34:57.732Z,47.76
2023-04-05T11:35:58.344Z,48.29
2023-04-05T11:36:57.688Z,47.96
2023-04-05T11:37:57.707Z,47.55
2023-04-05T11:38:57.742Z,46.22
2023-04-05T11:39:57.654Z,48.07
2023-04-05T11:40:57.700Z,48.17
2023-04-05T11:41:57.657Z,50.53
2023-04-05T11:42:57.701Z,49.17
2023-04-05T11:43:57.674Z,48.04
2023-04-05T11:44:57.600Z,47.33
2023-04-05T11:45:57.650Z,48.46
2023-04-05T11:46:57.597Z,48.14
2023-04-05T11:47:57.624Z,48.97
2023-04-05T11:48:57.582Z,46.81
2023-04-05T11:49:57.579Z,46.09
2023-04-05T11:50:57.603Z,45.89
2023-04-05T11:51:57.530Z,47.42
2023-04-05T11:52:57.521Z,49.38
2023-04-05T11:53:57.570Z,47.84
2023-04-05T11:54:57.585Z,47.53
2023-04-05T11:55:57.486Z,47.84
2023-04-05T11:56:57.462Z,46.50
2023-04-05T11:57:57.492Z,48.66
2023-04-05T11:58:57.501Z,47.45
2023-04-05T11:59:57.497Z,47.02
2023-04-05T12:00:57.487Z,47.94
2023-04-05T12:01:57.414Z,47.53
2023-04-05T12:02:57.525Z,49.99
2023-04-05T12:03:57.548Z,50.48
2023-04-05T12:04:57.749Z,49.97
2023-04-05T12:05:57.366Z,49.43
2023-04-05T12:06:57.354Z,46.87
2023-04-05T12:07:57.361Z,45.33
2023-04-05T12:08:57.380Z,46.15
2023-04-05T12:09:57.344Z,46.56
2023-04-05T12:10:57.388Z,44.20
2023-04-05T12:11:57.340Z,44.00
2023-04-05T12:12:57.322Z,43.59
2023-04-05T12:13:57.304Z,43.69
2023-04-05T12:14:57.326Z,45.95
2023-04-05T12:15:57.382Z,45.13
2023-04-05T12:16:57.317Z,46.25
2023-04-05T12:17:57.281Z,45.64
2023-04-05T12:18:57.247Z,44.92
2023-04-05T12:19:57.246Z,44.94
2023-04-05T12:20:57.237Z,44.43
2023-04-05T12:21:57.308Z,48.13
2023-04-05T12:22:57.213Z,46.69
2023-04-05T12:23:57.210Z,44.84
2023-04-05T12:24:57.167Z,46.69
2023-04-05T12:25:57.206Z,47.30
2023-04-05T12:26:59.214Z,46.38
2023-04-05T12:27:57.233Z,45.95
2023-04-05T12:28:57.133Z,45.33
2023-04-05T12:29:57.219Z,47.38
2023-04-05T12:30:57.138Z,45.84
2023-04-05T12:31:57.136Z,45.43
2023-04-05T12:32:57.231Z,46.23
2023-04-05T12:33:57.116Z,43.98
2023-04-05T12:34:57.143Z,44.59
2023-04-05T12:35:57.087Z,44.29
2023-04-05T12:36:57.048Z,45.42
2023-04-05T12:37:57.030Z,43.88
2023-04-05T12:38:57.020Z,46.03
2023-04-05T12:39:57.085Z,46.44
2023-04-05T12:40:57.076Z,46.13
2023-04-05T12:41:57.050Z,45.00
2023-04-05T12:42:56.990Z,45.62
2023-04-05T12:43:56.976Z,44.39
2023-04-05T12:44:57.172Z,46.21
2023-04-05T12:45:57.021Z,47.97
2023-04-05T12:46:57.403Z,46.54
2023-04-05T12:47:57.035Z,45.70
2023-04-05T12:48:57.651Z,47.88
2023-04-05T12:49:56.967Z,47.55
2023-04-05T12:50:56.908Z,45.80
2023-04-05T12:51:56.899Z,46.31